createdAt,value
2022-11-27T00:01:36.642Z,100705.69
2022-11-27T00:04:10.959Z,100704.94
2022-11-27T00:06:42.828Z,100703.28
2022-11-27T00:09:16.240Z,100703.38
2022-11-27T00:11:48.027Z,100702.72
2022-11-27T00:14:21.603Z,100703.97
2022-11-27T00:16:53.292Z,100700.50
2022-11-27T00:19:25.002Z,100694.75
2022-11-27T00:21:56.639Z,100688.03
2022-11-27T00:24:28.473Z,100680.50
2022-11-27T00:27:00.159Z,100685.91
2022-11-27T00:29:34.382Z,100689.84
2022-11-27T00:32:08.176Z,100685.00
2022-11-27T00:34:40.387Z,100684.38
2022-11-27T00:37:14.869Z,100690.56
2022-11-27T00:39:47.519Z,100684.59
2022-11-27T00:42:19.185Z,100696.09
2022-11-27T00:44:51.384Z,100698.91
2022-11-27T00:47:23.017Z,100697.22
2022-11-27T00:49:54.628Z,100692.19
2022-11-27T00:52:26.301Z,100697.63
2022-11-27T00:55:00.819Z,100694.25
2022-11-27T00:57:32.607Z,100705.75
2022-11-27T01:00:06.852Z,100708.66
2022-11-27T01:02:38.631Z,100705.47
2022-11-27T01:05:10.753Z,100705.56
2022-11-27T01:07:42.410Z,100703.06
2022-11-27T01:10:14.041Z,100709.22
2022-11-27T01:12:50.170Z,100705.88
2022-11-27T01:15:21.943Z,100699.91
2022-11-27T01:17:53.726Z,100697.47
2022-11-27T01:20:25.281Z,100694.31
2022-11-27T01:22:56.953Z,100699.06
2022-11-27T01:25:28.566Z,100694.03
2022-11-27T01:28:00.343Z,100697.69
2022-11-27T01:30:31.940Z,100687.38
2022-11-27T01:33:03.709Z,100692.81
2022-11-27T01:35:35.351Z,100694.78
2022-11-27T01:38:07.238Z,100694.13
2022-11-27T01:40:38.852Z,100702.06
2022-11-27T01:43:15.462Z,100701.31
2022-11-27T01:45:47.084Z,100704.03
2022-11-27T01:48:18.880Z,100692.16
2022-11-27T01:50:53.221Z,100684.41
2022-11-27T01:53:25.412Z,100688.06
2022-11-27T01:56:00.620Z,100678.63
2022-11-27T01:58:33.814Z,100675.38
2022-11-27T02:01:05.982Z,100669.47
2022-11-27T02:03:39.534Z,100668.84
2022-11-27T02:06:14.169Z,100673.22
2022-11-27T02:08:47.959Z,100669.97
2022-11-27T02:11:35.591Z,100670.13
2022-11-27T02:14:31.723Z,100672.25
2022-11-27T02:17:26.096Z,100670.50
2022-11-27T02:20:27.343Z,100668.72
2022-11-27T02:23:28.235Z,100663.59
2022-11-27T02:26:26.433Z,100656.59
2022-11-27T02:29:02.791Z,100642.81
2022-11-27T02:31:45.078Z,100632.59
2022-11-27T02:34:28.796Z,100650.16
2022-11-27T02:37:27.394Z,100645.03
2022-11-27T02:40:08.038Z,100647.00
2022-11-27T02:43:01.917Z,100658.44
2022-11-27T02:45:41.336Z,100650.53
2022-11-27T02:48:15.637Z,100635.78
2022-11-27T02:50:50.298Z,100635.88
2022-11-27T02:53:49.575Z,100639.59
2022-11-27T02:56:26.212Z,100637.91
2022-11-27T02:59:02.975Z,100633.63
2022-11-27T03:01:41.147Z,100624.31
2022-11-27T03:04:19.105Z,100625.31
2022-11-27T03:06:58.039Z,100628.88
2022-11-27T03:09:35.564Z,100625.50
2022-11-27T03:12:09.854Z,100619.53
2022-11-27T03:14:42.929Z,100626.63
2022-11-27T03:17:35.963Z,100623.25
2022-11-27T03:20:18.319Z,100628.47
2022-11-27T03:22:50.067Z,100625.09
2022-11-27T03:25:22.864Z,100620.94
2022-11-27T03:28:03.545Z,100618.41
2022-11-27T03:30:35.315Z,100619.59
2022-11-27T03:33:07.439Z,100618.91
2022-11-27T03:35:39.133Z,100632.09
2022-11-27T03:38:12.402Z,100626.38
2022-11-27T03:41:07.428Z,100631.03
2022-11-27T03:43:55.885Z,100632.03
2022-11-27T03:46:44.820Z,100631.53
2022-11-27T03:49:22.340Z,100630.88
2022-11-27T03:52:23.544Z,100636.38
2022-11-27T03:55:18.839Z,100640.06
2022-11-27T03:58:08.936Z,100637.91
2022-11-27T04:00:43.906Z,100639.75
2022-11-27T04:03:24.925Z,100650.19
2022-11-27T04:05:57.703Z,100649.53
2022-11-27T04:08:30.600Z,100649.03
2022-11-27T04:11:04.469Z,100651.19
2022-11-27T04:13:37.082Z,100650.09
2022-11-27T04:16:09.294Z,100650.38
2022-11-27T04:18:41.005Z,100642.97
2022-11-27T04:21:12.852Z,100641.34
2022-11-27T04:23:45.200Z,100646.56
2022-11-27T04:26:16.935Z,100649.34
2022-11-27T04:28:51.471Z,100653.97
2022-11-27T04:31:25.956Z,100648.69
2022-11-27T04:34:00.878Z,100653.19
2022-11-27T04:36:37.591Z,100643.69
2022-11-27T04:39:10.949Z,100647.84
2022-11-27T04:41:42.817Z,100641.59
2022-11-27T04:44:14.955Z,100643.28
2022-11-27T04:46:46.743Z,100643.16
2022-11-27T04:49:19.027Z,100633.38
2022-11-27T04:51:50.871Z,100640.19
2022-11-27T04:54:26.143Z,100644.38
2022-11-27T04:56:57.774Z,100645.31
2022-11-27T04:59:29.538Z,100635.72
2022-11-27T05:02:01.141Z,100639.25
2022-11-27T05:04:33.018Z,100638.75
2022-11-27T05:07:04.568Z,100643.03
2022-11-27T05:09:36.214Z,100634.28
2022-11-27T05:12:08.162Z,100639.44
2022-11-27T05:14:42.907Z,100644.66
2022-11-27T05:17:16.110Z,100646.34
2022-11-27T05:19:48.029Z,100639.25
2022-11-27T05:22:19.621Z,100636.56
2022-11-27T05:24:51.217Z,100635.00
2022-11-27T05:27:22.889Z,100635.91
2022-11-27T05:29:54.533Z,100644.47
2022-11-27T05:32:26.216Z,100638.34
2022-11-27T05:34:57.819Z,100636.50
2022-11-27T05:37:29.733Z,100637.41
2022-11-27T05:40:01.688Z,100643.63
2022-11-27T05:42:33.400Z,100632.63
2022-11-27T05:45:05.564Z,100644.81
2022-11-27T05:47:37.239Z,100632.78
2022-11-27T05:50:09.506Z,100638.00
2022-11-27T05:52:41.227Z,100631.88
2022-11-27T05:55:12.933Z,100635.41
2022-11-27T05:57:44.649Z,100638.09
2022-11-27T06:00:16.747Z,100645.06
2022-11-27T06:02:48.469Z,100646.66
2022-11-27T06:05:20.251Z,100645.75
2022-11-27T06:07:51.834Z,100644.66
2022-11-27T06:10:23.553Z,100652.22
2022-11-27T06:12:55.578Z,100651.44
2022-11-27T06:15:27.201Z,100648.69
2022-11-27T06:17:58.791Z,100652.06
2022-11-27T06:20:30.535Z,100645.75
2022-11-27T06:23:02.145Z,100648.34
2022-11-27T06:25:33.723Z,100650.38
2022-11-27T06:28:05.302Z,100657.16
2022-11-27T06:30:38.171Z,100658.19
2022-11-27T06:33:09.710Z,100660.72
2022-11-27T06:35:41.288Z,100667.50
2022-11-27T06:38:12.899Z,100662.22
2022-11-27T06:40:44.528Z,100661.78
2022-11-27T06:43:18.841Z,100651.63
2022-11-27T06:45:58.765Z,100653.31
2022-11-27T06:48:30.790Z,100650.78
2022-11-27T06:51:05.409Z,100648.09
2022-11-27T06:53:38.160Z,100649.28
2022-11-27T06:56:13.055Z,100651.09
2022-11-27T06:58:44.682Z,100651.78
2022-11-27T07:01:17.632Z,100651.56
2022-11-27T07:03:49.389Z,100646.47
2022-11-27T07:06:23.870Z,100648.56
2022-11-27T07:08:55.768Z,100642.38
2022-11-27T07:11:29.829Z,100642.78
2022-11-27T07:14:04.441Z,100646.28
2022-11-27T07:16:36.743Z,100647.13
2022-11-27T07:19:08.583Z,100644.47
2022-11-27T07:21:40.564Z,100641.41
2022-11-27T07:24:12.177Z,100638.41
2022-11-27T07:26:45.784Z,100631.38
2022-11-27T07:29:17.420Z,100622.44
2022-11-27T07:31:51.268Z,100624.22
2022-11-27T07:34:23.544Z,100614.47
2022-11-27T07:36:55.124Z,100620.09
2022-11-27T07:39:46.653Z,100618.25
2022-11-27T07:45:10.863Z,100605.22
2022-11-27T07:47:42.758Z,100609.66
2022-11-27T07:50:17.181Z,100619.00
2022-11-27T07:52:48.955Z,100611.84
2022-11-27T07:55:20.573Z,100613.81
2022-11-27T07:57:52.274Z,100621.25
2022-11-27T08:00:25.164Z,100615.38
2022-11-27T08:02:57.912Z,100616.66
2022-11-27T08:05:29.890Z,100613.28
2022-11-27T08:08:04.285Z,100616.38
2022-11-27T08:10:40.429Z,100614.09
2022-11-27T08:13:12.079Z,100606.97
2022-11-27T08:15:43.672Z,100616.34
2022-11-27T08:18:15.300Z,100613.81
2022-11-27T08:20:47.045Z,100615.09
2022-11-27T08:23:18.709Z,100609.09
2022-11-27T08:25:50.315Z,100606.50
2022-11-27T08:28:24.084Z,100606.50
2022-11-27T08:30:59.664Z,100605.31
2022-11-27T08:33:32.114Z,100600.56
2022-11-27T08:36:04.956Z,100600.63
2022-11-27T08:38:36.605Z,100600.09
2022-11-27T08:41:09.343Z,100602.53
2022-11-27T08:43:42.429Z,100596.41
2022-11-27T08:46:14.188Z,100597.13
2022-11-27T08:48:45.881Z,100593.69
2022-11-27T08:51:17.569Z,100599.72
2022-11-27T08:53:49.208Z,100593.16
2022-11-27T08:56:23.474Z,100594.50
2022-11-27T08:58:55.193Z,100586.78
2022-11-27T09:01:31.328Z,100587.06
2022-11-27T09:04:03.300Z,100590.72
2022-11-27T09:06:34.987Z,100579.53
2022-11-27T09:09:06.756Z,100580.50
2022-11-27T09:11:38.539Z,100594.28
2022-11-27T09:14:11.765Z,100581.09
2022-11-27T09:16:44.700Z,100585.47
2022-11-27T09:19:17.176Z,100588.94
2022-11-27T09:21:50.865Z,100589.31
2022-11-27T09:24:22.544Z,100582.41
2022-11-27T09:26:54.372Z,100597.72
2022-11-27T09:29:26.036Z,100594.84
2022-11-27T09:31:57.805Z,100591.63
2022-11-27T09:34:32.290Z,100594.25
2022-11-27T09:37:09.054Z,100600.22
2022-11-27T09:39:40.649Z,100595.19
2022-11-27T09:42:31.104Z,100598.25
2022-11-27T09:45:04.496Z,100592.63
2022-11-27T09:47:42.504Z,100588.72
2022-11-27T09:50:24.298Z,100592.06
2022-11-27T09:52:58.718Z,100583.66
2022-11-27T09:55:44.474Z,100572.19
2022-11-27T09:58:39.051Z,100569.25
2022-11-27T10:01:17.294Z,100563.84
2022-11-27T10:03:49.159Z,100563.72
2022-11-27T10:06:56.721Z,100559.16
2022-11-27T10:10:16.104Z,100549.25
2022-11-27T10:13:10.330Z,100548.97
2022-11-27T10:15:50.924Z,100542.56
2022-11-27T10:18:40.538Z,100535.38
2022-11-27T10:21:42.626Z,100531.16
2022-11-27T10:24:39.155Z,100526.28
2022-11-27T10:27:23.699Z,100515.25
2022-11-27T10:29:56.368Z,100518.75
2022-11-27T10:32:54.510Z,100515.25
2022-11-27T10:35:28.490Z,100516.72
2022-11-27T10:38:18.254Z,100503.13
2022-11-27T10:41:09.775Z,100495.41
2022-11-27T10:43:45.078Z,100491.78
2022-11-27T10:46:30.314Z,100492.81
2022-11-27T10:49:01.872Z,100490.31
2022-11-27T10:51:41.113Z,100498.59
2022-11-27T10:54:32.419Z,100494.41
2022-11-27T10:57:31.797Z,100496.81
2022-11-27T11:00:09.620Z,100478.91
2022-11-27T11:02:42.282Z,100483.69
2022-11-27T11:05:41.043Z,100472.31
2022-11-27T11:08:18.939Z,100466.19
2022-11-27T11:10:54.378Z,100464.31
2022-11-27T11:13:28.496Z,100472.59
2022-11-27T11:16:05.175Z,100474.75
2022-11-27T11:18:51.761Z,100473.81
2022-11-27T11:21:26.433Z,100463.22
2022-11-27T11:24:03.724Z,100459.22
2022-11-27T11:26:49.125Z,100458.56
2022-11-27T11:29:42.387Z,100452.97
2022-11-27T11:32:20.129Z,100447.66
2022-11-27T11:35:00.659Z,100444.66
2022-11-27T11:37:41.179Z,100448.00
2022-11-27T11:40:21.854Z,100440.88
2022-11-27T11:42:59.264Z,100443.25
2022-11-27T11:45:33.317Z,100445.47
2022-11-27T11:48:24.041Z,100436.34
2022-11-27T11:51:24.978Z,100430.97
2022-11-27T11:54:30.818Z,100422.31
2022-11-27T11:57:08.518Z,100429.44
2022-11-27T11:59:52.334Z,100423.25
2022-11-27T12:02:39.213Z,100416.44
2022-11-27T12:05:17.523Z,100417.25
2022-11-27T12:07:55.423Z,100416.22
2022-11-27T12:10:49.045Z,100411.56
2022-11-27T12:14:01.859Z,100414.97
2022-11-27T12:16:46.106Z,100403.84
2022-11-27T12:20:06.633Z,100403.03
2022-11-27T12:22:41.518Z,100394.97
2022-11-27T12:25:34.177Z,100387.38
2022-11-27T12:28:38.103Z,100390.78
2022-11-27T12:31:12.668Z,100387.84
2022-11-27T12:34:06.180Z,100389.69
2022-11-27T12:36:49.972Z,100384.88
2022-11-27T12:39:34.977Z,100383.75
2022-11-27T12:42:22.296Z,100378.31
2022-11-27T12:45:15.416Z,100376.66
2022-11-27T12:47:58.541Z,100378.22
2022-11-27T12:50:45.412Z,100391.38
2022-11-27T12:53:44.218Z,100390.34
2022-11-27T12:56:25.185Z,100384.91
2022-11-27T12:59:04.669Z,100384.19
2022-11-27T13:01:54.976Z,100374.47
2022-11-27T13:04:37.215Z,100379.94
2022-11-27T13:07:50.195Z,100371.50
2022-11-27T13:10:42.483Z,100371.59
2022-11-27T13:13:22.256Z,100365.06
2022-11-27T13:16:00.978Z,100368.06
2022-11-27T13:18:38.349Z,100359.28
2022-11-27T13:21:14.995Z,100354.94
2022-11-27T13:23:46.663Z,100347.69
2022-11-27T13:26:28.502Z,100346.28
2022-11-27T13:29:04.164Z,100338.78
2022-11-27T13:31:39.235Z,100331.09
2022-11-27T13:34:21.294Z,100323.59
2022-11-27T13:37:05.825Z,100314.31
2022-11-27T13:39:40.776Z,100312.75
2022-11-27T13:42:12.295Z,100302.56
2022-11-27T13:44:52.761Z,100307.69
2022-11-27T13:47:27.411Z,100303.97
2022-11-27T13:50:03.012Z,100306.59
2022-11-27T13:52:35.394Z,100305.06
2022-11-27T13:55:09.953Z,100311.16
2022-11-27T13:57:52.422Z,100313.06
2022-11-27T14:00:44.705Z,100299.22
2022-11-27T14:03:30.216Z,100295.16
2022-11-27T14:06:01.867Z,100290.69
2022-11-27T14:08:35.261Z,100279.72
2022-11-27T14:11:15.015Z,100273.56
2022-11-27T14:13:50.269Z,100277.78
2022-11-27T14:16:36.987Z,100284.28
2022-11-27T14:19:33.616Z,100276.06
2022-11-27T14:22:30.568Z,100270.59
2022-11-27T14:25:03.128Z,100270.91
2022-11-27T14:27:36.232Z,100266.97
2022-11-27T14:30:35.803Z,100269.13
2022-11-27T14:33:18.546Z,100269.50
2022-11-27T14:35:52.772Z,100261.16
2022-11-27T14:38:26.225Z,100258.19
2022-11-27T14:41:22.308Z,100256.06
2022-11-27T14:44:05.640Z,100254.88
2022-11-27T14:46:37.774Z,100258.00
2022-11-27T14:49:18.337Z,100262.19
2022-11-27T14:51:51.374Z,100260.06
2022-11-27T14:54:28.268Z,100258.88
2022-11-27T14:57:00.315Z,100256.00
2022-11-27T14:59:32.251Z,100255.69
2022-11-27T15:02:06.848Z,100253.66
2022-11-27T15:04:41.178Z,100256.03
2022-11-27T15:07:22.712Z,100247.09
2022-11-27T15:09:56.682Z,100243.63
2022-11-27T15:12:33.550Z,100250.50
2022-11-27T15:15:09.823Z,100257.41
2022-11-27T15:17:46.431Z,100252.72
2022-11-27T15:20:34.670Z,100256.06
2022-11-27T15:23:19.334Z,100256.50
2022-11-27T15:26:09.588Z,100250.31
2022-11-27T15:28:47.276Z,100244.78
2022-11-27T15:31:22.759Z,100237.38
2022-11-27T15:34:06.151Z,100243.06
2022-11-27T15:36:39.944Z,100247.94
2022-11-27T15:39:26.975Z,100254.34
2022-11-27T15:42:03.471Z,100248.72
2022-11-27T15:44:35.178Z,100244.88
2022-11-27T15:47:07.406Z,100247.09
2022-11-27T15:49:39.100Z,100239.69
2022-11-27T15:52:10.727Z,100236.47
2022-11-27T15:54:42.502Z,100236.81
2022-11-27T15:57:14.311Z,100236.19
2022-11-27T15:59:46.051Z,100239.38
2022-11-27T16:02:18.539Z,100232.81
2022-11-27T16:04:51.074Z,100232.06
2022-11-27T16:07:22.860Z,100222.13
2022-11-27T16:09:57.281Z,100215.47
2022-11-27T16:12:28.921Z,100206.03
2022-11-27T16:15:00.626Z,100197.94
2022-11-27T16:17:32.242Z,100201.59
2022-11-27T16:20:04.403Z,100202.97
2022-11-27T16:22:36.059Z,100198.06
2022-11-27T16:25:08.015Z,100199.00
2022-11-27T16:27:39.734Z,100195.78
2022-11-27T16:30:12.269Z,100185.50
2022-11-27T16:32:43.984Z,100184.16
2022-11-27T16:35:18.970Z,100178.94
2022-11-27T16:37:50.650Z,100181.03
2022-11-27T16:40:27.404Z,100169.25
2022-11-27T16:42:59.269Z,100178.25
2022-11-27T16:45:38.342Z,100181.91
2022-11-27T16:48:10.472Z,100178.59
2022-11-27T16:50:42.172Z,100164.88
2022-11-27T16:53:14.411Z,100159.88
2022-11-27T16:55:48.755Z,100155.69
2022-11-27T16:58:22.764Z,100150.03
2022-11-27T17:00:54.523Z,100147.75
2022-11-27T17:03:26.147Z,100144.63
2022-11-27T17:05:58.686Z,100150.19
2022-11-27T17:08:30.351Z,100146.09
2022-11-27T17:11:13.723Z,100137.53
2022-11-27T17:13:45.652Z,100135.78
2022-11-27T17:16:19.298Z,100148.19
2022-11-27T17:18:51.266Z,100145.47
2022-11-27T17:21:31.211Z,100145.28
2022-11-27T17:24:16.087Z,100137.22
2022-11-27T17:26:53.427Z,100131.16
2022-11-27T17:29:32.165Z,100132.09
2022-11-27T17:32:09.664Z,100130.53
2022-11-27T17:34:41.432Z,100126.03
2022-11-27T17:37:13.990Z,100131.47
2022-11-27T17:39:46.020Z,100127.19
2022-11-27T17:42:22.454Z,100117.78
2022-11-27T17:44:56.218Z,100125.00
2022-11-27T17:47:27.904Z,100122.63
2022-11-27T17:50:05.332Z,100127.94
2022-11-27T17:52:37.051Z,100121.03
2022-11-27T17:55:08.891Z,100122.63
2022-11-27T17:57:40.573Z,100125.31
2022-11-27T18:00:18.794Z,100122.72
2022-11-27T18:02:50.581Z,100124.16
2022-11-27T18:05:22.695Z,100109.13
2022-11-27T18:07:54.770Z,100114.56
2022-11-27T18:10:29.003Z,100117.38
2022-11-27T18:13:04.310Z,100106.84
2022-11-27T18:15:36.359Z,100106.94
2022-11-27T18:18:10.442Z,100107.69
2022-11-27T18:20:42.336Z,100104.94
2022-11-27T18:23:16.240Z,100106.44
2022-11-27T18:25:49.200Z,100109.75
2022-11-27T18:28:20.961Z,100100.56
2022-11-27T18:30:52.540Z,100099.72
2022-11-27T18:33:24.133Z,100102.25
2022-11-27T18:35:55.691Z,100097.75
2022-11-27T18:38:29.353Z,100094.00
2022-11-27T18:41:06.740Z,100087.00
2022-11-27T18:43:39.864Z,100081.34
2022-11-27T18:46:17.408Z,100078.13
2022-11-27T18:48:50.393Z,100071.56
2022-11-27T18:51:24.803Z,100064.00
2022-11-27T18:53:56.761Z,100056.59
2022-11-27T18:56:30.925Z,100049.81
2022-11-27T18:59:05.097Z,100055.25
2022-11-27T19:01:47.261Z,100052.03
2022-11-27T19:04:19.046Z,100048.34
2022-11-27T19:06:51.025Z,100052.53
2022-11-27T19:09:25.916Z,100043.78
2022-11-27T19:11:58.334Z,100039.81
2022-11-27T19:14:31.702Z,100040.00
2022-11-27T19:17:05.314Z,100037.94
2022-11-27T19:19:55.013Z,100034.91
2022-11-27T19:22:27.023Z,100036.97
2022-11-27T19:25:01.124Z,100036.34
2022-11-27T19:27:35.121Z,100033.53
2022-11-27T19:30:07.455Z,100030.81
2022-11-27T19:32:43.597Z,100019.66
2022-11-27T19:35:15.294Z,100016.94
2022-11-27T19:37:50.066Z,100016.81
2022-11-27T19:40:25.360Z,100017.56
2022-11-27T19:43:01.015Z,100021.63
2022-11-27T19:45:35.736Z,100007.75
2022-11-27T19:48:07.783Z,100008.78
2022-11-27T19:50:40.194Z,100008.03
2022-11-27T19:53:12.025Z,100012.53
2022-11-27T19:55:47.659Z,100007.81
2022-11-27T19:58:19.537Z,100013.66
2022-11-27T20:00:54.089Z,100007.50
2022-11-27T20:03:25.801Z,100010.66
2022-11-27T20:06:05.836Z,100010.56
2022-11-27T20:08:37.914Z,99997.50
2022-11-27T20:11:12.235Z,100012.31
2022-11-27T20:13:46.651Z,100010.78
2022-11-27T20:19:24.467Z,99995.81
2022-11-27T20:21:56.151Z,100002.81
2022-11-27T20:24:31.147Z,99997.63
2022-11-27T20:27:17.922Z,99999.56
2022-11-27T20:29:49.541Z,100000.50
2022-11-27T20:32:22.333Z,100005.09
2022-11-27T20:34:53.909Z,100005.28
2022-11-27T20:37:25.632Z,100005.28
2022-11-27T20:40:01.557Z,100009.69
2022-11-27T20:42:33.807Z,99994.97
2022-11-27T20:45:07.158Z,99998.44
2022-11-27T20:47:38.959Z,99994.06
2022-11-27T20:50:14.388Z,99989.03
2022-11-27T20:52:50.182Z,99992.97
2022-11-27T20:55:22.961Z,99989.81
2022-11-27T20:57:55.181Z,99984.53
2022-11-27T21:00:30.717Z,99987.75
2022-11-27T21:03:08.046Z,99988.50
2022-11-27T21:05:43.110Z,99989.94
2022-11-27T21:08:14.790Z,99985.78
2022-11-27T21:10:46.423Z,99988.81
2022-11-27T21:13:18.126Z,99977.53
2022-11-27T21:15:49.829Z,99985.53
2022-11-27T21:18:22.865Z,99995.47
2022-11-27T21:20:54.979Z,99980.47
2022-11-27T21:23:26.893Z,99977.75
2022-11-27T21:25:58.621Z,99974.22
2022-11-27T21:28:31.657Z,99969.19
2022-11-27T21:31:09.244Z,99959.00
2022-11-27T21:33:40.896Z,99956.06
2022-11-27T21:36:13.649Z,99958.75
2022-11-27T21:38:45.356Z,99946.69
2022-11-27T21:41:17.855Z,99945.03
2022-11-27T21:43:58.741Z,99945.94
2022-11-27T21:46:31.955Z,99940.84
2022-11-27T21:49:03.600Z,99940.22
2022-11-27T21:51:35.220Z,99936.97
2022-11-27T21:54:13.336Z,99932.72
2022-11-27T21:56:45.051Z,99932.72
2022-11-27T21:59:18.771Z,99931.22
2022-11-27T22:01:51.583Z,99927.59
2022-11-27T22:04:29.035Z,99921.63
2022-11-27T22:07:00.650Z,99921.53
2022-11-27T22:09:33.437Z,99913.63
2022-11-27T22:12:05.211Z,99919.56
2022-11-27T22:14:37.551Z,99914.34
2022-11-27T22:17:21.172Z,99919.97
2022-11-27T22:19:52.868Z,99910.16
2022-11-27T22:22:24.552Z,99909.72
2022-11-27T22:24:56.827Z,99906.38
2022-11-27T22:27:28.431Z,99903.69
2022-11-27T22:30:00.101Z,99901.59
2022-11-27T22:32:32.815Z,99903.28
2022-11-27T22:35:07.543Z,99902.25
2022-11-27T22:37:42.296Z,99896.06
2022-11-27T22:40:19.396Z,99904.44
2022-11-27T22:42:51.325Z,99891.94
2022-11-27T22:45:23.017Z,99877.00
2022-11-27T22:47:54.755Z,99875.25
2022-11-27T22:50:26.415Z,99872.88
2022-11-27T22:53:00.680Z,99873.69
2022-11-27T22:55:35.636Z,99863.28
2022-11-27T22:58:10.003Z,99850.25
2022-11-27T23:00:42.554Z,99849.59
2022-11-27T23:03:14.411Z,99845.03
2022-11-27T23:05:46.222Z,99849.81
2022-11-27T23:08:19.010Z,99850.13
2022-11-27T23:10:51.087Z,99852.91
2022-11-27T23:13:22.684Z,99853.13
2022-11-27T23:15:54.408Z,99855.84
2022-11-27T23:18:26.026Z,99850.53
2022-11-27T23:20:59.206Z,99851.38
2022-11-27T23:23:30.811Z,99851.38
2022-11-27T23:26:07.351Z,99843.75
2022-11-27T23:28:39.108Z,99840.97
2022-11-27T23:31:30.853Z,99847.19
2022-11-27T23:34:07.503Z,99845.91
2022-11-27T23:36:39.652Z,99838.31
2022-11-27T23:39:13.415Z,99840.38
2022-11-27T23:41:46.297Z,99839.00
2022-11-27T23:44:17.993Z,99831.09
2022-11-27T23:46:49.767Z,99823.19
2022-11-27T23:49:21.417Z,99818.75
2022-11-27T23:51:53.087Z,99814.56
2022-11-27T23:54:24.740Z,99811.03
2022-11-27T23:56:56.570Z,99805.81
2022-11-27T23:59:28.251Z,99796.13
